Time;durP1;ratioP1;P1;durP2;ratioP2;P2;SDS_P1;SDS_P2;PMS_P1;PMS_P2;Temp;Humidity;BMP_temperature;BMP_pressure;BME280_temperature;BME280_humidity;BME280_pressure;Samples;Min_cycle;Max_cycle;Signal;HPM_P1;HPM_P2
2023/12/24 00:00:24;;;;;;;7.90;5.47;;;;;;;5.99;71.11;94154.59;4958293;28;20204;-72
2023/12/24 00:02:50;;;;;;;6.07;4.67;;;;;;;6.01;71.41;94140.44;4967113;28;20236;-69
2023/12/24 00:05:15;;;;;;;6.40;4.73;;;;;;;6.05;71.18;94157.47;4974536;28;20286;-70
2023/12/24 00:07:41;;;;;;;7.67;4.73;;;;;;;6.15;70.88;94168.69;4978818;28;20286;-67
2023/12/24 00:10:07;;;;;;;6.93;5.47;;;;;;;6.18;71.08;94173.59;4980151;28;20289;-69
2023/12/24 00:12:32;;;;;;;7.80;5.23;;;;;;;6.22;71.06;94174.13;4995871;28;20274;-68
2023/12/24 00:14:57;;;;;;;10.23;5.77;;;;;;;6.33;70.60;94173.91;4962802;28;20307;-70
2023/12/24 00:17:23;;;;;;;7.73;5.40;;;;;;;6.37;70.79;94187.53;4975456;28;20219;-68
2023/12/24 00:19:48;;;;;;;7.23;5.70;;;;;;;6.33;70.93;94197.41;4971006;28;20220;-70
2023/12/24 00:22:14;;;;;;;8.97;6.57;;;;;;;6.18;72.58;94193.66;4972791;28;20242;-69
2023/12/24 00:24:41;;;;;;;6.90;5.63;;;;;;;6.20;72.93;94186.50;4984768;28;20213;-69
2023/12/24 00:27:07;;;;;;;8.70;6.97;;;;;;;6.43;71.95;94186.94;4991862;28;20219;-73
2023/12/24 00:29:32;;;;;;;7.80;6.90;;;;;;;6.34;72.18;94187.81;4993943;28;20246;-74
2023/12/24 00:31:57;;;;;;;8.83;6.57;;;;;;;6.22;72.39;94196.81;4972638;28;20221;-73
2023/12/24 00:34:23;;;;;;;7.97;6.30;;;;;;;6.37;71.82;94203.19;4964946;28;20228;-73
2023/12/24 00:36:48;;;;;;;9.80;6.63;;;;;;;6.13;72.57;94201.94;4978019;28;20191;-73
2023/12/24 00:39:14;;;;;;;9.07;6.77;;;;;;;6.09;72.87;94226.66;4978352;28;20216;-69
2023/12/24 00:41:39;;;;;;;7.37;6.30;;;;;;;6.06;73.06;94206.06;4984731;28;20278;-71
2023/12/24 00:44:05;;;;;;;8.27;6.73;;;;;;;6.12;72.93;94218.56;4984761;28;20228;-67
2023/12/24 00:46:31;;;;;;;10.73;6.80;;;;;;;6.15;72.38;94230.50;4985023;28;20231;-73
2023/12/24 00:48:56;;;;;;;9.53;6.53;;;;;;;5.94;73.38;94236.75;4977234;28;20246;-71
2023/12/24 00:51:21;;;;;;;10.40;7.13;;;;;;;5.98;72.83;94224.25;4972371;28;20213;-72
2023/12/24 00:53:47;;;;;;;8.90;6.77;;;;;;;6.07;72.95;94235.63;4978741;28;20215;-69
2023/12/24 00:56:12;;;;;;;10.30;7.10;;;;;;;6.15;72.26;94241.78;4973683;28;20235;-72
2023/12/24 00:58:38;;;;;;;11.13;6.00;;;;;;;6.06;72.06;94254.84;4966938;28;20231;-72
2023/12/24 01:01:03;;;;;;;7.87;6.20;;;;;;;6.19;71.89;94261.38;4963154;28;20206;-72
2023/12/24 01:03:29;;;;;;;9.50;5.63;;;;;;;6.33;70.87;94265.31;4988358;28;20188;-72
2023/12/24 01:05:54;;;;;;;10.00;5.33;;;;;;;6.50;70.27;94271.56;4985936;28;20259;-72
2023/12/24 01:08:20;;;;;;;7.07;4.67;;;;;;;6.52;69.66;94269.63;4984756;28;20231;-72
2023/12/24 01:10:47;;;;;;;6.27;4.20;;;;;;;6.56;68.58;94278.00;4986293;28;20227;-72
2023/12/24 01:13:18;;;;;;;5.03;2.47;;;;;;;6.78;64.79;94282.00;4988059;28;20223;-71
2023/12/24 01:15:44;;;;;;;3.77;1.90;;;;;;;6.88;64.66;94279.34;4986838;28;20199;-72
2023/12/24 01:18:10;;;;;;;3.10;1.90;;;;;;;7.01;63.07;94292.88;4990128;28;20215;-72
2023/12/24 01:20:35;;;;;;;3.23;1.50;;;;;;;7.09;62.46;94282.50;4989441;28;20219;-71
2023/12/24 01:23:00;;;;;;;2.70;1.60;;;;;;;7.24;62.04;94296.69;4980231;28;20228;-72
2023/12/24 01:25:26;;;;;;;2.30;1.63;;;;;;;7.21;61.63;94290.94;4973827;28;20278;-71
2023/12/24 01:27:52;;;;;;;2.63;1.50;;;;;;;7.36;60.93;94299.91;4988954;28;20256;-68
2023/12/24 01:30:18;;;;;;;2.87;1.60;;;;;;;7.42;60.56;94309.75;4990805;28;20219;-68
2023/12/24 01:32:43;;;;;;;2.30;1.53;;;;;;;7.53;60.90;94306.09;4969698;28;20227;-68
2023/12/24 01:35:09;;;;;;;3.13;1.40;;;;;;;7.56;59.48;94305.78;4981302;28;20222;-68
2023/12/24 01:37:34;;;;;;;4.20;1.50;;;;;;;7.56;59.29;94308.41;4986814;28;20211;-68
2023/12/24 01:39:59;;;;;;;3.43;1.43;;;;;;;7.57;58.85;94317.09;4983877;28;20192;-68
2023/12/24 01:42:25;;;;;;;2.40;1.30;;;;;;;7.61;58.89;94314.00;4993270;28;20238;-73
2023/12/24 01:44:50;;;;;;;2.20;1.40;;;;;;;7.66;58.11;94311.75;4966631;28;20228;-73
2023/12/24 01:47:16;;;;;;;2.83;1.20;;;;;;;7.66;57.50;94308.31;4976589;28;20230;-74
2023/12/24 01:49:41;;;;;;;3.60;1.30;;;;;;;7.70;57.23;94312.28;4979976;28;20223;-74
2023/12/24 01:52:07;;;;;;;1.37;1.10;;;;;;;7.73;56.43;94312.81;4984305;28;20251;-73
2023/12/24 01:54:34;;;;;;;1.00;0.90;;;;;;;7.70;55.99;94320.16;4981608;28;20192;-73
2023/12/24 01:57:00;;;;;;;4.10;1.27;;;;;;;7.72;56.04;94319.03;4971138;28;20216;-69
2023/12/24 01:59:26;;;;;;;2.63;1.40;;;;;;;7.83;56.13;94327.59;4984136;28;20234;-70
2023/12/24 02:01:53;;;;;;;1.40;1.07;;;;;;;7.82;56.14;94331.19;4987664;28;20298;-66
2023/12/24 02:04:19;;;;;;;1.90;1.00;;;;;;;7.77;55.73;94336.88;4984368;28;20220;-68
2023/12/24 02:06:45;;;;;;;1.83;1.10;;;;;;;7.87;56.14;94334.19;4983099;28;20239;-69
2023/12/24 02:09:10;;;;;;;1.10;1.00;;;;;;;7.85;56.40;94331.69;4984799;28;20238;-70
2023/12/24 02:11:35;;;;;;;2.07;1.30;;;;;;;7.78;55.75;94341.16;4981752;28;20254;-69
2023/12/24 02:14:02;;;;;;;2.80;1.10;;;;;;;7.78;55.55;94350.78;4988373;28;20223;-70
2023/12/24 02:16:33;;;;;;;1.00;0.90;;;;;;;7.77;56.08;94355.19;4984975;28;20223;-73
2023/12/24 02:18:59;;;;;;;2.50;1.20;;;;;;;7.85;55.81;94352.63;4989068;28;20191;-73
2023/12/24 02:21:24;;;;;;;1.93;1.50;;;;;;;7.85;55.78;94350.03;4977091;28;20191;-73
2023/12/24 02:23:50;;;;;;;2.83;1.33;;;;;;;7.87;55.95;94349.88;4971694;28;20224;-73
2023/12/24 02:26:28;;;;;;;2.80;1.27;;;;;;;7.88;55.09;94349.72;4981813;28;20222;-68
2023/12/24 02:29:06;;;;;;;1.30;1.20;;;;;;;7.84;55.71;94355.41;4984527;28;20305;-69
2023/12/24 02:31:34;;;;;;;2.27;1.20;;;;;;;7.88;55.89;94362.81;4993490;28;20314;-68
2023/12/24 02:34:02;;;;;;;2.60;1.50;;;;;;;7.86;55.56;94349.06;4966064;28;20259;-68
2023/12/24 02:36:29;;;;;;;2.57;1.30;;;;;;;7.84;55.92;94351.00;4988598;28;20184;-68
2023/12/24 02:38:56;;;;;;;1.80;1.20;;;;;;;7.85;55.49;94350.03;4981849;28;20299;-69
2023/12/24 02:41:22;;;;;;;1.90;1.30;;;;;;;7.89;55.37;94354.00;5003361;28;20223;-69
2023/12/24 02:43:47;;;;;;;2.63;1.10;;;;;;;7.83;55.79;94359.84;4983404;28;20220;-69
2023/12/24 02:46:13;;;;;;;2.83;1.30;;;;;;;7.88;55.60;94372.44;4984246;28;20227;-73
2023/12/24 02:48:38;;;;;;;1.40;1.20;;;;;;;7.86;55.62;94375.25;4986709;28;20206;-70
2023/12/24 02:51:04;;;;;;;1.63;1.30;;;;;;;7.86;54.74;94375.25;4975419;28;20232;-74
2023/12/24 02:53:29;;;;;;;1.80;1.13;;;;;;;7.92;55.07;94369.38;4964866;28;20220;-74
2023/12/24 02:55:55;;;;;;;2.60;1.13;;;;;;;7.97;55.08;94375.97;4967399;28;20227;-74
2023/12/24 02:58:20;;;;;;;1.37;1.17;;;;;;;7.86;54.87;94379.66;4979949;28;20266;-74
2023/12/24 03:00:45;;;;;;;1.23;1.10;;;;;;;7.88;54.82;94377.69;4985046;28;20192;-74
2023/12/24 03:03:11;;;;;;;1.93;1.73;;;;;;;7.82;54.51;94376.50;4982539;28;20227;-74
2023/12/24 03:05:36;;;;;;;1.67;1.30;;;;;;;7.85;54.53;94389.28;4987602;28;20223;-74
2023/12/24 03:08:02;;;;;;;1.57;1.20;;;;;;;7.91;54.31;94380.00;4991043;28;20218;-74
2023/12/24 03:10:27;;;;;;;1.70;1.27;;;;;;;7.86;54.39;94387.50;4993492;28;20224;-74
2023/12/24 03:12:53;;;;;;;1.77;1.03;;;;;;;7.86;54.46;94392.75;4987123;28;20702;-73
2023/12/24 03:15:18;;;;;;;1.77;1.30;;;;;;;7.86;53.99;94390.94;4994997;28;20190;-74
2023/12/24 03:17:44;;;;;;;1.53;1.10;;;;;;;7.85;53.92;94397.13;4996843;28;20230;-74
2023/12/24 03:20:09;;;;;;;1.33;1.10;;;;;;;7.83;53.65;94401.72;4981202;28;20216;-74
2023/12/24 03:22:35;;;;;;;2.30;1.30;;;;;;;7.81;54.07;94408.88;4983547;28;20302;-74
2023/12/24 03:25:00;;;;;;;1.33;1.23;;;;;;;7.81;54.07;94403.66;4993380;28;20202;-74
2023/12/24 03:27:26;;;;;;;1.20;1.10;;;;;;;7.75;53.82;94404.22;4990863;28;20209;-74
2023/12/24 03:29:52;;;;;;;1.20;1.10;;;;;;;7.73;53.80;94414.06;5002260;28;20301;-74
2023/12/24 03:32:17;;;;;;;1.73;1.50;;;;;;;7.78;54.01;94417.03;4989804;28;20222;-74
2023/12/24 03:34:42;;;;;;;1.73;1.27;;;;;;;7.81;53.81;94418.53;4976889;28;20219;-74
2023/12/24 03:37:08;;;;;;;1.20;1.10;;;;;;;7.84;54.24;94419.06;4977935;28;20235;-73
2023/12/24 03:39:33;;;;;;;2.77;1.47;;;;;;;7.84;54.21;94426.09;4987802;28;20187;-73
2023/12/24 03:41:58;;;;;;;1.40;1.20;;;;;;;7.89;53.63;94427.28;4995602;28;20227;-73
2023/12/24 03:44:24;;;;;;;1.20;1.10;;;;;;;7.85;53.91;94439.00;4979691;28;20299;-74
2023/12/24 03:46:49;;;;;;;1.23;1.13;;;;;;;7.83;53.69;94435.75;4986395;28;20287;-74
2023/12/24 03:49:15;;;;;;;2.03;1.20;;;;;;;7.87;54.02;94444.09;4983397;28;20222;-73
2023/12/24 03:51:40;;;;;;;2.27;1.50;;;;;;;7.89;53.75;94448.22;5002196;28;20224;-74
2023/12/24 03:54:05;;;;;;;1.30;1.20;;;;;;;7.94;53.76;94440.75;4995701;28;20266;-73
2023/12/24 03:56:31;;;;;;;2.73;1.40;;;;;;;7.95;53.16;94458.09;4991736;28;20305;-73
2023/12/24 03:58:56;;;;;;;2.00;1.27;;;;;;;7.82;53.23;94452.41;4988001;28;20284;-73
2023/12/24 04:01:26;;;;;;;1.67;1.30;;;;;;;7.78;53.08;94463.31;4992622;28;20234;-73
2023/12/24 04:03:51;;;;;;;2.00;1.33;;;;;;;7.71;53.63;94463.09;4989723;28;20206;-72
2023/12/24 04:06:16;;;;;;;1.90;1.40;;;;;;;7.83;52.89;94463.69;4986060;28;20235;-73
2023/12/24 04:08:42;;;;;;;1.30;1.20;;;;;;;7.78;53.17;94474.63;4992866;28;20219;-73
2023/12/24 04:11:16;;;;;;;2.27;1.23;;;;;;;7.88;52.90;94477.16;4987126;28;20313;-73
2023/12/24 04:13:41;;;;;;;2.43;1.60;;;;;;;7.99;53.01;94489.22;4982968;28;20219;-73
2023/12/24 04:16:07;;;;;;;1.47;1.27;;;;;;;7.84;53.17;94483.69;4963088;28;20235;-74
2023/12/24 04:18:33;;;;;;;2.53;1.33;;;;;;;7.87;53.32;94499.91;4985848;28;20195;-73
2023/12/24 04:20:59;;;;;;;1.83;1.30;;;;;;;7.83;53.61;94493.34;4983228;28;20229;-74
2023/12/24 04:23:24;;;;;;;2.47;1.70;;;;;;;7.82;53.64;94499.50;4987857;28;20227;-74
2023/12/24 04:25:49;;;;;;;2.67;1.50;;;;;;;7.79;53.89;94507.66;4988386;28;20234;-73
2023/12/24 04:28:15;;;;;;;2.10;1.63;;;;;;;7.78;54.07;94490.34;4985196;28;20223;-74
2023/12/24 04:30:41;;;;;;;2.20;1.47;;;;;;;7.75;53.91;94487.97;4986815;28;20264;-74
2023/12/24 04:33:06;;;;;;;1.50;1.40;;;;;;;7.89;54.17;94494.53;4978562;28;20226;-74
2023/12/24 04:35:32;;;;;;;2.03;1.40;;;;;;;7.79;54.15;94505.06;4986891;28;20281;-74
2023/12/24 04:37:59;;;;;;;1.47;1.37;;;;;;;7.83;54.11;94500.34;4976325;28;20292;-75
2023/12/24 04:40:24;;;;;;;2.37;1.50;;;;;;;7.80;54.29;94501.44;4974412;28;20231;-73
2023/12/24 04:42:50;;;;;;;1.83;1.37;;;;;;;7.87;54.06;94499.91;4984857;28;20188;-73
2023/12/24 04:45:15;;;;;;;2.20;1.53;;;;;;;7.97;54.04;94507.69;4991376;28;20290;-74
2023/12/24 04:47:41;;;;;;;2.03;1.30;;;;;;;7.87;54.24;94512.16;4972829;28;20240;-74
2023/12/24 04:50:07;;;;;;;2.60;1.37;;;;;;;7.89;54.16;94515.47;4978837;28;20309;-74
2023/12/24 04:52:35;;;;;;;2.03;1.50;;;;;;;7.90;54.09;94499.59;4988382;28;20223;-75
2023/12/24 04:55:04;;;;;;;1.37;1.10;;;;;;;7.97;53.93;94506.88;4984525;28;20198;-74
2023/12/24 04:57:30;;;;;;;2.07;1.30;;;;;;;8.01;53.73;94516.06;4956847;28;20196;-73
2023/12/24 04:59:56;;;;;;;2.20;1.10;;;;;;;8.02;53.77;94518.56;4962947;28;20227;-74
2023/12/24 05:02:21;;;;;;;1.50;1.20;;;;;;;8.11;53.49;94516.84;4984848;28;20265;-74
2023/12/24 05:04:48;;;;;;;1.83;1.20;;;;;;;8.03;53.76;94522.81;5000938;28;20218;-74
2023/12/24 05:07:14;;;;;;;2.43;1.27;;;;;;;8.10;53.35;94530.88;4983449;28;20222;-73
2023/12/24 05:09:40;;;;;;;1.63;1.20;;;;;;;8.08;53.26;94532.84;4987425;28;20178;-75
2023/12/24 05:12:06;;;;;;;1.53;1.20;;;;;;;8.06;53.45;94540.03;4991329;28;20235;-74
2023/12/24 05:14:33;;;;;;;1.10;0.90;;;;;;;7.99;53.52;94547.63;4986854;28;20230;-73
2023/12/24 05:16:59;;;;;;;5.93;1.20;;;;;;;8.03;53.55;94553.41;4985763;28;20219;-74
2023/12/24 05:19:24;;;;;;;1.60;1.07;;;;;;;8.07;53.32;94555.59;4991363;28;20233;-73
2023/12/24 05:21:50;;;;;;;1.80;1.10;;;;;;;8.12;53.54;94560.38;4988428;28;20211;-72
2023/12/24 05:24:15;;;;;;;0.90;0.90;;;;;;;8.18;53.17;94576.31;4988617;28;20183;-73
2023/12/24 05:26:40;;;;;;;1.17;1.07;;;;;;;8.21;53.17;94561.28;4973116;28;20219;-73
2023/12/24 05:29:06;;;;;;;2.60;1.43;;;;;;;8.29;53.24;94567.44;4978977;28;20283;-74
2023/12/24 05:31:31;;;;;;;2.30;1.10;;;;;;;8.12;53.32;94576.91;4999263;28;20230;-73
2023/12/24 05:33:57;;;;;;;0.83;0.83;;;;;;;8.17;53.08;94555.50;4996500;28;20222;-75
2023/12/24 05:36:22;;;;;;;2.10;1.10;;;;;;;8.14;53.11;94558.44;4979842;28;20188;-73
2023/12/24 05:38:48;;;;;;;1.40;1.00;;;;;;;8.20;53.05;94541.28;4991783;28;20215;-72
2023/12/24 05:41:15;;;;;;;0.90;0.77;;;;;;;8.26;52.80;94543.31;4987719;28;20222;-73
2023/12/24 05:43:40;;;;;;;1.00;0.90;;;;;;;8.16;52.87;94553.88;4988690;28;20241;-73
2023/12/24 05:46:13;;;;;;;1.30;0.80;;;;;;;8.20;52.89;94559.63;4976379;28;20300;-73
2023/12/24 05:48:38;;;;;;;1.00;0.90;;;;;;;8.23;53.16;94560.16;4973219;28;20207;-74
2023/12/24 05:51:04;;;;;;;1.87;1.10;;;;;;;8.24;52.84;94551.34;4990708;28;20703;-74
2023/12/24 05:53:29;;;;;;;1.00;0.73;;;;;;;8.29;52.63;94558.75;4990610;28;20219;-74
2023/12/24 05:55:54;;;;;;;2.23;0.83;;;;;;;8.19;52.69;94553.56;4987521;28;20214;-74
2023/12/24 05:58:20;;;;;;;1.77;1.03;;;;;;;8.10;53.04;94543.97;4996183;28;20234;-74
2023/12/24 06:00:46;;;;;;;1.10;0.90;;;;;;;8.20;52.86;94549.97;4991680;28;20214;-74
2023/12/24 06:03:11;;;;;;;1.10;0.83;;;;;;;8.09;52.97;94548.38;4971780;28;20224;-74
2023/12/24 06:05:37;;;;;;;3.23;1.37;;;;;;;8.15;53.43;94554.81;4967261;28;20216;-74
2023/12/24 06:08:02;;;;;;;2.60;1.20;;;;;;;8.18;53.31;94565.03;4966339;28;20220;-74
2023/12/24 06:10:28;;;;;;;2.63;1.30;;;;;;;8.15;53.38;94567.91;4967972;28;20287;-74
2023/12/24 06:12:54;;;;;;;2.60;1.40;;;;;;;8.22;53.36;94578.66;4968096;28;20238;-74
2023/12/24 06:15:20;;;;;;;1.00;0.90;;;;;;;8.23;53.12;94570.63;4976201;28;20211;-74
2023/12/24 06:17:45;;;;;;;1.30;1.13;;;;;;;8.28;53.10;94572.81;4966958;28;20219;-74
2023/12/24 06:20:11;;;;;;;2.00;1.50;;;;;;;8.34;53.05;94567.81;4973314;28;20225;-75
2023/12/24 06:22:36;;;;;;;1.20;1.10;;;;;;;8.31;52.81;94572.50;4953983;28;20358;-75
2023/12/24 06:25:02;;;;;;;1.40;1.13;;;;;;;8.37;52.54;94583.22;4972648;28;20301;-75
2023/12/24 06:27:27;;;;;;;2.73;1.63;;;;;;;8.34;52.45;94578.28;4968632;28;20216;-75
2023/12/24 06:29:53;;;;;;;1.03;0.93;;;;;;;8.38;52.52;94584.03;4955803;28;20278;-74
2023/12/24 06:32:18;;;;;;;2.17;1.07;;;;;;;8.35;52.77;94590.41;4968919;28;20224;-75
2023/12/24 06:34:44;;;;;;;1.60;1.17;;;;;;;8.44;52.47;94590.50;4964675;28;20223;-76
2023/12/24 06:37:09;;;;;;;2.67;1.30;;;;;;;8.43;52.69;94589.69;4965976;28;20370;-74
2023/12/24 06:39:35;;;;;;;1.20;1.10;;;;;;;8.45;52.45;94587.75;4972365;28;20223;-74
2023/12/24 06:42:00;;;;;;;2.07;1.23;;;;;;;8.44;52.52;94586.09;4967188;28;20224;-74
2023/12/24 06:44:26;;;;;;;2.70;1.00;;;;;;;8.41;51.85;94582.97;4969613;28;20257;-75
2023/12/24 06:46:51;;;;;;;1.93;1.10;;;;;;;8.37;52.05;94590.28;4972121;28;20233;-75
2023/12/24 06:49:18;;;;;;;2.40;0.90;;;;;;;8.48;51.98;94597.94;4970635;28;20371;-73
2023/12/24 06:51:43;;;;;;;1.00;0.70;;;;;;;8.51;51.77;94607.28;4970417;28;20218;-74
2023/12/24 06:54:09;;;;;;;1.60;1.07;;;;;;;8.61;51.82;94626.41;4970421;28;20232;-74
2023/12/24 06:56:34;;;;;;;2.47;0.90;;;;;;;8.56;51.83;94624.22;4982649;28;20290;-73
2023/12/24 06:59:00;;;;;;;1.30;1.20;;;;;;;8.67;51.74;94635.47;4992161;28;20298;-75
2023/12/24 07:01:25;;;;;;;1.00;0.90;;;;;;;8.58;51.38;94629.28;4990807;28;20225;-75
2023/12/24 07:03:51;;;;;;;0.97;0.87;;;;;;;8.61;51.47;94645.56;4980135;28;20199;-75
2023/12/24 07:06:16;;;;;;;1.43;1.00;;;;;;;8.75;51.42;94646.03;4985807;28;20242;-75
2023/12/24 07:08:41;;;;;;;2.27;0.93;;;;;;;8.83;50.95;94646.09;4989294;28;20293;-76
2023/12/24 07:11:08;;;;;;;1.47;0.90;;;;;;;8.77;51.29;94652.75;4990376;28;20266;-76
2023/12/24 07:13:33;;;;;;;1.10;0.97;;;;;;;8.80;51.23;94644.59;4991843;28;20243;-75
2023/12/24 07:15:59;;;;;;;1.13;1.03;;;;;;;8.90;50.55;94651.53;4984943;28;20186;-75
2023/12/24 07:18:25;;;;;;;1.00;0.93;;;;;;;8.92;50.57;94644.34;4985028;28;20193;-76
2023/12/24 07:20:51;;;;;;;1.50;1.00;;;;;;;8.90;50.61;94656.78;4983628;28;20215;-75
2023/12/24 07:23:16;;;;;;;1.00;0.97;;;;;;;8.97;50.86;94657.84;4986246;28;20233;-75
2023/12/24 07:25:41;;;;;;;1.13;1.00;;;;;;;8.88;50.34;94651.72;4993224;28;20302;-75
2023/12/24 07:28:07;;;;;;;1.70;1.10;;;;;;;8.99;50.37;94656.72;4991620;28;20310;-75
2023/12/24 07:30:32;;;;;;;2.03;1.17;;;;;;;9.08;50.25;94656.78;4983912;28;20214;-75
2023/12/24 07:32:58;;;;;;;1.77;1.17;;;;;;;9.03;50.41;94644.97;4987379;28;20298;-74
2023/12/24 07:35:23;;;;;;;1.60;1.30;;;;;;;9.12;50.26;94661.59;4990320;28;20258;-75
2023/12/24 07:37:49;;;;;;;2.33;1.20;;;;;;;9.17;49.90;94656.72;4988228;28;20223;-74
2023/12/24 07:40:14;;;;;;;2.63;1.40;;;;;;;9.10;49.69;94668.78;4995862;28;20218;-74
2023/12/24 07:42:40;;;;;;;3.53;1.97;;;;;;;9.13;49.50;94681.59;4982248;28;20250;-74
2023/12/24 07:45:06;;;;;;;3.57;1.80;;;;;;;9.26;49.51;94673.34;4983609;28;20265;-75
2023/12/24 07:47:31;;;;;;;1.87;1.37;;;;;;;9.26;49.38;94668.91;4973515;28;20230;-76
2023/12/24 07:49:57;;;;;;;3.20;1.90;;;;;;;9.34;49.66;94664.72;4973321;28;20215;-75
2023/12/24 07:52:23;;;;;;;3.93;2.83;;;;;;;9.30;50.47;94656.28;4975202;28;20226;-75
2023/12/24 07:54:48;;;;;;;3.30;3.00;;;;;;;9.45;50.44;94653.94;4984704;28;20226;-75
2023/12/24 07:57:14;;;;;;;4.80;3.30;;;;;;;9.54;50.37;94650.41;4985926;28;20266;-74
2023/12/24 07:59:40;;;;;;;3.97;2.83;;;;;;;9.49;50.74;94658.75;4981890;28;20286;-75
2023/12/24 08:02:05;;;;;;;4.27;2.73;;;;;;;9.57;50.65;94665.00;4980327;28;20223;-74
2023/12/24 08:04:31;;;;;;;3.67;3.00;;;;;;;9.65;50.66;94663.28;4988472;28;20239;-76
2023/12/24 08:06:57;;;;;;;3.53;2.60;;;;;;;9.73;50.21;94680.91;4981608;28;20226;-75
2023/12/24 08:09:22;;;;;;;3.73;2.67;;;;;;;9.82;49.81;94679.94;4988902;28;20195;-74
2023/12/24 08:11:48;;;;;;;3.07;2.47;;;;;;;9.91;49.31;94686.88;4995539;28;20227;-74
2023/12/24 08:14:13;;;;;;;2.03;1.30;;;;;;;9.88;48.00;94668.81;4986673;28;20306;-74
2023/12/24 08:16:39;;;;;;;2.80;1.20;;;;;;;9.76;47.55;94653.50;4989277;28;20215;-75
2023/12/24 08:19:05;;;;;;;2.40;1.47;;;;;;;9.98;46.67;94647.69;4983136;28;20290;-75
2023/12/24 08:21:31;;;;;;;4.00;2.20;;;;;;;9.87;47.95;94632.22;4987533;28;20211;-75
2023/12/24 08:23:57;;;;;;;3.23;2.57;;;;;;;9.84;49.23;94645.66;4987502;28;20227;-75
2023/12/24 08:26:22;;;;;;;6.70;4.23;;;;;;;10.04;48.94;94646.25;4966448;28;20242;-78
2023/12/24 08:28:47;;;;;;;7.33;5.13;;;;;;;10.04;49.83;94648.88;4980933;28;20223;-74
2023/12/24 08:31:13;;;;;;;7.60;6.28;;;;;;;10.06;51.04;94636.41;4970282;28;20262;-76
2023/12/24 08:33:39;;;;;;;6.80;5.83;;;;;;;10.05;50.69;94630.34;4965872;28;20247;-75
2023/12/24 08:36:06;;;;;;;7.77;6.20;;;;;;;10.29;50.57;94639.31;4965814;28;20226;-75
2023/12/24 08:38:32;;;;;;;8.87;6.50;;;;;;;10.43;50.38;94633.44;4969197;28;20215;-75
2023/12/24 08:40:57;;;;;;;7.40;5.87;;;;;;;10.56;50.42;94635.63;4965779;28;20218;-74
2023/12/24 08:43:23;;;;;;;6.73;5.87;;;;;;;10.52;50.10;94639.53;4972632;28;20270;-76
2023/12/24 08:45:48;;;;;;;9.27;5.73;;;;;;;10.51;50.06;94653.69;4966692;28;20644;-75
2023/12/24 08:48:14;;;;;;;6.70;5.40;;;;;;;10.47;50.14;94653.16;4965062;28;20180;-76
2023/12/24 08:50:39;;;;;;;7.67;5.80;;;;;;;10.47;50.07;94647.09;4963343;28;20227;-78
2023/12/24 08:53:04;;;;;;;6.80;5.10;;;;;;;10.37;50.56;94641.97;4976384;28;20298;-76
2023/12/24 08:55:30;;;;;;;6.03;4.63;;;;;;;10.41;49.93;94648.56;4963761;28;20226;-75
2023/12/24 08:57:55;;;;;;;5.57;4.72;;;;;;;10.51;49.90;94653.69;4964927;28;20188;-76
2023/12/24 09:00:21;;;;;;;8.13;4.27;;;;;;;10.62;49.45;94655.19;4966970;28;20215;-77
2023/12/24 09:02:47;;;;;;;6.63;4.90;;;;;;;10.71;49.59;94641.06;4978446;28;20227;-75
2023/12/24 09:05:12;;;;;;;6.22;5.07;;;;;;;10.80;49.43;94634.84;4997397;28;20227;-75
2023/12/24 09:07:38;;;;;;;5.10;4.43;;;;;;;10.81;49.14;94633.84;4979863;28;20234;-75
2023/12/24 09:10:04;;;;;;;5.68;4.35;;;;;;;10.95;48.42;94614.78;4982947;28;20274;-74
2023/12/24 09:12:30;;;;;;;6.10;4.03;;;;;;;10.97;48.29;94633.88;4987347;28;20192;-75
2023/12/24 09:14:55;;;;;;;4.53;3.67;;;;;;;11.08;47.89;94627.47;4988652;28;20282;-75
2023/12/24 09:17:21;;;;;;;4.23;3.83;;;;;;;11.12;47.71;94626.16;4988811;28;20239;-79
2023/12/24 09:19:46;;;;;;;4.00;3.57;;;;;;;11.03;47.71;94627.94;4980701;28;20223;-75
2023/12/24 09:22:12;;;;;;;4.63;3.70;;;;;;;11.02;47.34;94630.75;4974771;28;20228;-74
2023/12/24 09:24:37;;;;;;;4.78;3.10;;;;;;;11.15;46.98;94632.91;4962753;28;20206;-74
2023/12/24 09:27:03;;;;;;;5.53;3.07;;;;;;;11.19;47.04;94629.75;4987070;28;20218;-74
2023/12/24 09:29:28;;;;;;;6.38;3.35;;;;;;;11.14;47.22;94631.25;4991326;28;20645;-75
2023/12/24 09:31:54;;;;;;;5.30;3.00;;;;;;;10.98;47.70;94624.97;4988017;28;20238;-75
2023/12/24 09:34:20;;;;;;;4.03;3.10;;;;;;;11.14;47.48;94618.06;4986253;28;20249;-75
2023/12/24 09:36:45;;;;;;;3.33;2.47;;;;;;;11.18;46.32;94619.41;4999335;28;20179;-76
2023/12/24 09:39:11;;;;;;;2.38;1.90;;;;;;;11.25;45.82;94628.28;4985349;28;20249;-76
2023/12/24 09:41:39;;;;;;;1.77;1.45;;;;;;;11.35;44.84;94623.66;4990672;28;20212;-75
2023/12/24 09:44:08;;;;;;;1.20;0.90;;;;;;;11.46;42.72;94625.94;4989524;28;20230;-75
2023/12/24 09:46:34;;;;;;;1.00;0.90;;;;;;;11.47;42.76;94619.72;4988943;28;20219;-74
2023/12/24 09:48:59;;;;;;;1.97;1.20;;;;;;;11.45;42.40;94611.16;4988169;28;20194;-75
2023/12/24 09:51:26;;;;;;;2.95;1.15;;;;;;;11.59;42.12;94616.72;4986661;28;20210;-74
2023/12/24 09:53:54;;;;;;;1.67;1.40;;;;;;;11.70;41.74;94617.19;4975997;28;20234;-71
2023/12/24 09:56:19;;;;;;;1.83;1.27;;;;;;;11.58;41.74;94602.75;4987682;28;20269;-73
2023/12/24 09:58:48;;;;;;;1.10;1.00;;;;;;;11.56;41.56;94604.72;4983152;28;20228;-72
2023/12/24 10:01:14;;;;;;;1.67;1.25;;;;;;;11.45;41.73;94594.53;4982945;28;20226;-71
2023/12/24 10:03:39;;;;;;;1.40;1.20;;;;;;;11.38;41.31;94580.38;4989719;28;20245;-70
2023/12/24 10:06:07;;;;;;;3.37;1.03;;;;;;;11.36;41.77;94572.69;4987488;28;20239;-71
2023/12/24 10:08:34;;;;;;;1.92;1.30;;;;;;;11.21;42.05;94561.19;4986436;28;20222;-72
2023/12/24 10:11:23;;;;;;;1.53;1.23;;;;;;;11.37;42.20;94552.44;4988457;28;20231;-71
2023/12/24 10:13:59;;;;;;;2.83;1.40;;;;;;;11.52;41.99;94549.91;5002576;28;20234;-73
2023/12/24 10:16:25;;;;;;;3.00;1.25;;;;;;;11.65;41.78;94548.41;4993662;28;20227;-72
2023/12/24 10:18:51;;;;;;;2.15;1.40;;;;;;;11.83;41.43;94556.06;4993899;28;20190;-73
2023/12/24 10:21:18;;;;;;;3.33;1.27;;;;;;;12.14;41.07;94550.06;4993789;28;20202;-70
2023/12/24 10:23:44;;;;;;;2.00;1.30;;;;;;;12.33;40.76;94525.88;4973879;28;20306;-75
2023/12/24 10:26:11;;;;;;;2.40;1.55;;;;;;;12.43;40.54;94538.00;4981885;28;20297;-68
2023/12/24 10:28:49;;;;;;;2.55;1.45;;;;;;;12.60;39.96;94523.72;4995682;28;20226;-70
2023/12/24 10:31:15;;;;;;;1.70;1.30;;;;;;;12.82;39.90;94524.69;5003706;28;20258;-70
2023/12/24 10:33:41;;;;;;;2.70;1.70;;;;;;;12.86;40.01;94496.97;4984291;28;20219;-74
2023/12/24 10:36:07;;;;;;;2.08;1.20;;;;;;;13.09;39.34;94499.56;4983875;28;20216;-71
2023/12/24 10:38:34;;;;;;;2.08;1.38;;;;;;;13.18;39.45;94498.50;4987958;28;20223;-68
2023/12/24 10:41:00;;;;;;;2.97;1.35;;;;;;;13.24;39.48;94494.31;4982501;28;20216;-70
2023/12/24 10:43:26;;;;;;;2.50;1.60;;;;;;;13.44;39.08;94507.81;4987205;28;20224;-71
2023/12/24 10:45:51;;;;;;;2.90;1.58;;;;;;;13.56;38.93;94490.53;4969171;28;20195;-71
2023/12/24 10:48:17;;;;;;;2.42;1.30;;;;;;;13.72;38.30;94504.53;4989780;28;20187;-72
2023/12/24 10:50:43;;;;;;;1.65;1.30;;;;;;;13.98;37.96;94501.41;4982343;28;20227;-71
2023/12/24 10:53:09;;;;;;;2.17;1.63;;;;;;;14.20;37.62;94491.72;4989827;28;20219;-72
2023/12/24 10:55:36;;;;;;;3.63;1.67;;;;;;;14.47;37.10;94488.31;4985237;28;20223;-72
2023/12/24 10:58:38;;;;;;;3.25;1.70;;;;;;;14.60;36.84;94477.09;4965971;28;20244;-73
2023/12/24 11:01:15;;;;;;;3.65;1.30;;;;;;;14.50;37.09;94482.66;4983829;28;20241;-73
2023/12/24 11:03:47;;;;;;;3.22;1.80;;;;;;;14.52;37.04;94480.66;4981082;28;20183;-72
2023/12/24 11:06:38;;;;;;;3.88;1.50;;;;;;;14.50;37.40;94477.34;4987003;28;20235;-72
2023/12/24 11:09:04;;;;;;;3.65;1.90;;;;;;;14.56;37.48;94481.91;4982548;28;20219;-71
2023/12/24 11:11:53;;;;;;;4.95;1.83;;;;;;;14.39;36.72;94477.88;4987042;28;20234;-72
2023/12/24 11:14:45;;;;;;;4.22;1.63;;;;;;;14.43;36.56;94475.66;4989181;28;20220;-71
2023/12/24 11:17:33;;;;;;;4.38;1.30;;;;;;;14.37;36.70;94479.88;4998737;28;20305;-71
2023/12/24 11:20:18;;;;;;;3.85;1.67;;;;;;;14.40;36.98;94498.00;4987333;28;20230;-71
2023/12/24 11:23:02;;;;;;;4.47;2.67;;;;;;;14.22;37.43;94509.03;4987230;28;20230;-71
2023/12/24 11:25:47;;;;;;;4.88;2.53;;;;;;;14.13;38.66;94505.66;4994545;28;20314;-72
2023/12/24 11:28:23;;;;;;;3.53;2.20;;;;;;;14.24;39.72;94503.53;4989409;28;20230;-71
2023/12/24 11:30:51;;;;;;;3.80;2.60;;;;;;;14.30;38.88;94502.78;4993478;28;20215;-71
2023/12/24 11:33:29;;;;;;;5.22;2.88;;;;;;;14.43;39.30;94487.03;4985278;28;20183;-70
2023/12/24 11:36:01;;;;;;;4.28;2.30;;;;;;;14.71;37.70;94484.50;4985051;28;20268;-71